Time;durP1;ratioP1;P1;durP2;ratioP2;P2;SDS_P1;SDS_P2;PMS_P1;PMS_P2;Temp;Humidity;BMP_temperature;BMP_pressure;BME280_temperature;BME280_humidity;BME280_pressure;Samples;Min_cycle;Max_cycle;Signal;HPM_P1;HPM_P2
2021/07/03 00:01:24;;;;;;;12.98;8.05;;;18.00;99.90;;;;;;5032662;28;20029;-70
2021/07/03 00:03:50;;;;;;;14.23;7.70;;;17.90;99.90;;;;;;5031463;28;20056;-69
2021/07/03 00:06:15;;;;;;;12.30;8.23;;;18.00;99.90;;;;;;5032520;28;20053;-69
2021/07/03 00:08:41;;;;;;;11.80;7.75;;;17.90;99.90;;;;;;5031201;28;20033;-69
2021/07/03 00:11:09;;;;;;;11.57;8.10;;;17.90;99.90;;;;;;5031469;28;20033;-70
2021/07/03 00:13:35;;;;;;;13.85;8.40;;;17.90;99.90;;;;;;5031155;28;20049;-70
2021/07/03 00:16:01;;;;;;;13.68;8.18;;;17.90;99.90;;;;;;5030889;28;20029;-70
2021/07/03 00:18:27;;;;;;;15.18;8.35;;;17.80;99.90;;;;;;5032174;28;20033;-70
2021/07/03 00:20:53;;;;;;;14.38;7.65;;;17.90;99.90;;;;;;5032480;28;20456;-69
2021/07/03 00:23:19;;;;;;;13.95;7.50;;;17.90;99.90;;;;;;5032280;28;20626;-69
2021/07/03 00:25:45;;;;;;;13.95;8.27;;;17.90;99.90;;;;;;5032209;28;20400;-69
2021/07/03 00:28:11;;;;;;;13.45;7.43;;;17.90;99.90;;;;;;5032379;28;20030;-69
2021/07/03 00:30:36;;;;;;;11.57;7.60;;;17.90;99.90;;;;;;5032270;28;20271;-69
2021/07/03 00:33:02;;;;;;;12.65;7.72;;;17.80;99.90;;;;;;5032387;28;20033;-69
2021/07/03 00:35:28;;;;;;;14.48;7.78;;;17.80;99.90;;;;;;5032130;28;20095;-69
2021/07/03 00:37:54;;;;;;;11.63;7.20;;;17.90;99.90;;;;;;5031980;28;20033;-69
2021/07/03 00:40:20;;;;;;;12.15;8.25;;;17.80;99.90;;;;;;5032134;28;20021;-69
2021/07/03 00:42:47;;;;;;;16.92;8.05;;;17.80;99.90;;;;;;5014681;28;20092;-69
2021/07/03 00:45:12;;;;;;;11.90;8.13;;;17.70;99.90;;;;;;5032068;28;20124;-69
2021/07/03 00:47:39;;;;;;;15.45;8.05;;;17.70;99.90;;;;;;5031917;28;20112;-69
2021/07/03 00:50:10;;;;;;;13.27;7.68;;;17.80;99.90;;;;;;5031792;28;20028;-69
2021/07/03 00:52:37;;;;;;;;;;;17.80;99.90;;;;;;5031340;28;20037;-70
2021/07/03 00:55:04;;;;;;;11.60;7.22;;;17.80;99.90;;;;;;5032135;28;19913;-69
2021/07/03 00:57:31;;;;;;;11.32;7.00;;;17.90;99.90;;;;;;5014196;28;20079;-69
2021/07/03 00:59:58;;;;;;;12.25;7.80;;;18.00;99.90;;;;;;5031739;28;20253;-70
2021/07/03 01:02:24;;;;;;;12.10;7.45;;;18.00;99.90;;;;;;5032349;28;20533;-70
2021/07/03 01:04:50;;;;;;;15.73;7.78;;;17.90;99.90;;;;;;5030689;28;20382;-70
2021/07/03 01:07:16;;;;;;;11.35;7.85;;;17.90;99.90;;;;;;5031663;28;20045;-69
2021/07/03 01:09:42;;;;;;;12.75;7.63;;;17.90;99.90;;;;;;5032049;28;20021;-69
2021/07/03 01:12:10;;;;;;;15.30;8.57;;;17.80;99.90;;;;;;5031969;28;20402;-69
2021/07/03 01:14:44;;;;;;;11.30;7.88;;;17.70;99.90;;;;;;5032064;28;20529;-69
2021/07/03 01:17:12;;;;;;;14.73;8.48;;;17.70;99.90;;;;;;5030663;28;20044;-69
2021/07/03 01:19:38;;;;;;;12.02;7.97;;;17.60;99.90;;;;;;5030810;28;20478;-69
2021/07/03 01:22:10;;;;;;;12.25;8.13;;;17.50;99.90;;;;;;5031906;28;20037;-69
2021/07/03 01:24:37;;;;;;;16.65;8.52;;;17.50;99.90;;;;;;5030378;28;20033;-70
2021/07/03 01:27:05;;;;;;;17.23;9.27;;;17.50;99.90;;;;;;5030468;28;20144;-70
2021/07/03 01:29:32;;;;;;;13.65;8.35;;;17.40;99.90;;;;;;5034574;28;20029;-70
2021/07/03 01:32:02;;;;;;;13.40;8.75;;;17.40;99.90;;;;;;5035555;28;20116;-70
2021/07/03 01:34:29;;;;;;;15.82;8.73;;;17.30;99.90;;;;;;5017637;28;20417;-70
2021/07/03 01:36:56;;;;;;;14.93;8.82;;;17.40;99.90;;;;;;5035054;28;20030;-70
2021/07/03 01:39:24;;;;;;;14.55;9.18;;;17.30;99.90;;;;;;5035470;28;20034;-69
2021/07/03 01:41:50;;;;;;;12.82;8.05;;;17.30;99.90;;;;;;5035224;28;20444;-69
2021/07/03 01:44:39;;;;;;;15.35;9.02;;;17.20;99.90;;;;;;5035191;28;20113;-70
2021/07/03 01:47:05;;;;;;;14.05;8.38;;;17.20;99.90;;;;;;5033939;28;20046;-70
2021/07/03 01:49:42;;;;;;;16.35;8.98;;;17.20;99.90;;;;;;5034056;28;20108;-70
2021/07/03 01:52:08;;;;;;;17.75;8.15;;;17.20;99.90;;;;;;5035304;28;20037;-70
2021/07/03 01:54:36;;;;;;;14.23;9.25;;;17.10;99.90;;;;;;5034958;28;20433;-70
2021/07/03 01:57:02;;;;;;;16.25;8.60;;;17.10;99.90;;;;;;5035057;28;20036;-69
2021/07/03 01:59:31;;;;;;;16.55;9.20;;;17.20;99.90;;;;;;5033998;28;20033;-70
2021/07/03 02:02:00;;;;;;;17.35;9.18;;;17.20;99.90;;;;;;5033603;28;20029;-71
2021/07/03 02:04:27;;;;;;;17.60;9.13;;;17.30;99.90;;;;;;5033952;28;20036;-69
2021/07/03 02:06:53;;;;;;;13.55;8.90;;;17.30;99.90;;;;;;5033365;28;20054;-69
2021/07/03 02:09:20;;;;;;;13.15;8.90;;;17.30;99.90;;;;;;5034957;28;20034;-69
2021/07/03 02:11:47;;;;;;;16.08;8.20;;;17.30;99.90;;;;;;5034864;28;20033;-69
2021/07/03 02:14:13;;;;;;;13.35;8.63;;;17.30;99.90;;;;;;5035011;28;20044;-69
2021/07/03 02:16:42;;;;;;;13.73;8.75;;;17.30;99.90;;;;;;5033622;28;20064;-69
2021/07/03 02:19:09;;;;;;;13.95;8.25;;;17.30;99.90;;;;;;5033139;28;20148;-69
2021/07/03 02:21:36;;;;;;;12.07;8.40;;;17.20;99.90;;;;;;5033597;28;20033;-70
2021/07/03 02:24:03;;;;;;;13.30;7.18;;;17.10;99.90;;;;;;5034625;28;20030;-70
2021/07/03 02:26:29;;;;;;;13.88;8.35;;;17.10;99.90;;;;;;5033204;28;20179;-69
2021/07/03 02:28:56;;;;;;;17.50;9.77;;;17.10;99.90;;;;;;5033178;28;20121;-70
2021/07/03 02:31:21;;;;;;;14.90;8.32;;;17.10;99.90;;;;;;5034415;28;20124;-70
2021/07/03 02:33:48;;;;;;;14.05;8.65;;;17.10;99.90;;;;;;5034331;28;20068;-69
2021/07/03 02:36:14;;;;;;;14.95;8.65;;;17.00;99.90;;;;;;5032758;28;20029;-69
2021/07/03 02:38:41;;;;;;;11.77;8.38;;;17.10;99.90;;;;;;5033696;28;20507;-69
2021/07/03 02:41:07;;;;;;;11.45;8.10;;;17.00;99.90;;;;;;5032831;28;20033;-69
2021/07/03 02:43:32;;;;;;;13.38;8.38;;;17.00;99.90;;;;;;5034031;28;20033;-69
2021/07/03 02:45:59;;;;;;;15.02;8.77;;;17.00;99.90;;;;;;5034229;28;20421;-69
2021/07/03 02:48:25;;;;;;;12.88;8.32;;;17.10;99.90;;;;;;5033906;28;20106;-70
2021/07/03 02:50:51;;;;;;;17.30;7.78;;;17.10;99.90;;;;;;5032954;28;20044;-70
2021/07/03 02:53:16;;;;;;;11.43;7.97;;;17.00;99.90;;;;;;5033850;28;20038;-70
2021/07/03 02:55:42;;;;;;;13.82;8.25;;;17.10;99.90;;;;;;5033640;28;20033;-70
2021/07/03 02:58:08;;;;;;;14.32;8.90;;;17.10;99.90;;;;;;5032438;28;20076;-69
2021/07/03 03:00:34;;;;;;;13.27;8.13;;;17.10;99.90;;;;;;5033780;28;20034;-69
2021/07/03 03:03:00;;;;;;;12.82;8.10;;;17.10;99.90;;;;;;5033671;28;20065;-70
2021/07/03 03:05:26;;;;;;;14.85;8.30;;;17.00;99.90;;;;;;5032341;28;20521;-70
2021/07/03 03:07:52;;;;;;;13.27;7.82;;;16.90;99.90;;;;;;5032504;28;20060;-70
2021/07/03 03:10:19;;;;;;;12.70;8.10;;;16.90;99.90;;;;;;5032295;28;20040;-69
2021/07/03 03:12:47;;;;;;;13.70;8.27;;;16.70;99.90;;;;;;5032563;28;20112;-69
2021/07/03 03:15:14;;;;;;;12.73;7.65;;;16.80;99.90;;;;;;5032172;28;20120;-69
2021/07/03 03:17:40;;;;;;;11.88;7.57;;;16.80;99.90;;;;;;5033632;28;20029;-70
2021/07/03 03:20:10;;;;;;;13.27;8.25;;;16.60;99.90;;;;;;5033445;28;20379;-70
2021/07/03 03:22:36;;;;;;;12.50;7.80;;;16.60;99.90;;;;;;5032424;28;20116;-70
2021/07/03 03:25:04;;;;;;;11.38;7.90;;;16.60;99.90;;;;;;5033492;28;20033;-70
2021/07/03 03:27:30;;;;;;;13.07;7.75;;;16.50;99.90;;;;;;5033170;28;20037;-70
2021/07/03 03:29:56;;;;;;;126.28;65.82;;;16.60;99.90;;;;;;5032256;28;20037;-69
2021/07/03 03:32:22;;;;;;;411.83;148.45;;;16.50;99.90;;;;;;5032873;28;20045;-69
2021/07/03 03:34:47;;;;;;;12.82;7.97;;;16.60;99.90;;;;;;5015576;28;20088;-69
2021/07/03 03:37:13;;;;;;;13.55;7.78;;;16.70;99.90;;;;;;5033128;28;20025;-69
2021/07/03 03:39:39;;;;;;;16.92;8.60;;;16.70;99.90;;;;;;5033061;28;20029;-69
2021/07/03 03:42:05;;;;;;;14.45;8.77;;;16.60;99.90;;;;;;5015392;28;20041;-69
2021/07/03 03:44:31;;;;;;;13.30;8.27;;;16.70;99.90;;;;;;5033161;28;20021;-69
2021/07/03 03:46:56;;;;;;;12.40;9.18;;;16.70;99.90;;;;;;5031900;28;20033;-69
2021/07/03 03:49:22;;;;;;;17.95;8.63;;;16.40;99.90;;;;;;5014979;28;20329;-68
2021/07/03 03:51:49;;;;;;;13.88;8.05;;;16.30;99.90;;;;;;5032113;28;20061;-69
2021/07/03 03:54:17;;;;;;;15.50;8.20;;;16.50;99.90;;;;;;5032730;28;20041;-70
2021/07/03 03:56:43;;;;;;;10.35;7.25;;;16.60;99.90;;;;;;5031444;28;20038;-70
2021/07/03 03:59:12;;;;;;;12.40;7.07;;;16.50;99.90;;;;;;5032874;28;20041;-70
2021/07/03 04:01:38;;;;;;;12.63;8.27;;;16.50;99.90;;;;;;5032474;28;20124;-70
2021/07/03 04:04:05;;;;;;;13.38;8.20;;;16.40;99.90;;;;;;5032917;28;20045;-70
2021/07/03 04:06:31;;;;;;;12.40;8.60;;;16.40;99.90;;;;;;5031185;28;20525;-70
2021/07/03 04:08:57;;;;;;;12.07;8.30;;;16.50;99.90;;;;;;5032727;28;20038;-70
2021/07/03 04:11:23;;;;;;;14.75;8.40;;;16.60;99.90;;;;;;5032336;28;20030;-70
2021/07/03 04:13:49;;;;;;;11.27;7.85;;;16.60;99.90;;;;;;5014896;28;20041;-70
2021/07/03 04:16:15;;;;;;;11.90;7.60;;;16.70;99.90;;;;;;5032209;28;20030;-70
2021/07/03 04:18:40;;;;;;;15.43;7.57;;;16.60;99.90;;;;;;5031354;28;20509;-70
2021/07/03 04:21:06;;;;;;;10.90;7.70;;;16.30;99.90;;;;;;5032493;28;20168;-69
2021/07/03 04:23:32;;;;;;;13.18;8.10;;;16.20;99.90;;;;;;5032395;28;20040;-70
2021/07/03 04:25:58;;;;;;;11.02;7.38;;;16.20;99.90;;;;;;5032604;28;20040;-69
2021/07/03 04:28:23;;;;;;;10.00;7.18;;;16.20;99.90;;;;;;5032356;28;20040;-69
2021/07/03 04:30:49;;;;;;;12.50;8.27;;;16.30;99.90;;;;;;5032372;28;20036;-69
2021/07/03 04:33:15;;;;;;;12.57;7.50;;;16.40;99.90;;;;;;5031106;28;20390;-69
2021/07/03 04:35:40;;;;;;;11.05;8.10;;;16.20;99.90;;;;;;5030898;28;20124;-69
2021/07/03 04:38:06;;;;;;;11.85;7.65;;;16.30;99.90;;;;;;5031924;28;20042;-69
2021/07/03 04:40:32;;;;;;;15.80;8.40;;;16.40;99.90;;;;;;5032202;28;20117;-69
2021/07/03 04:42:59;;;;;;;13.63;8.48;;;16.50;99.90;;;;;;5031086;28;20087;-70
2021/07/03 04:45:24;;;;;;;18.35;9.02;;;16.50;99.90;;;;;;5031967;28;20485;-69
2021/07/03 04:47:51;;;;;;;13.77;8.25;;;16.60;99.90;;;;;;5030989;28;20124;-70
2021/07/03 04:50:17;;;;;;;15.95;8.15;;;16.50;99.90;;;;;;5031897;28;20040;-70
2021/07/03 04:52:43;;;;;;;14.02;9.48;;;16.30;99.90;;;;;;5032141;28;20029;-70
2021/07/03 04:55:10;;;;;;;15.05;8.90;;;16.30;99.90;;;;;;5032223;28;20033;-70
2021/07/03 04:57:35;;;;;;;15.27;9.10;;;16.50;99.90;;;;;;5030593;28;20236;-69
2021/07/03 05:00:03;;;;;;;17.20;10.00;;;16.60;99.90;;;;;;5030713;28;20029;-69
2021/07/03 05:02:29;;;;;;;19.50;9.05;;;16.60;99.90;;;;;;5016268;28;20044;-69
2021/07/03 05:04:55;;;;;;;15.90;9.75;;;16.70;99.90;;;;;;5035038;28;20382;-69
2021/07/03 05:07:21;;;;;;;13.73;9.18;;;16.80;99.90;;;;;;5035616;28;20196;-69
2021/07/03 05:09:46;;;;;;;14.15;9.00;;;16.90;99.90;;;;;;5018357;28;20025;-69
2021/07/03 05:12:12;;;;;;;15.27;9.48;;;16.90;99.90;;;;;;5035716;28;20033;-69
2021/07/03 05:14:39;;;;;;;19.13;9.85;;;17.00;99.90;;;;;;5036135;28;20065;-69
2021/07/03 05:17:05;;;;;;;13.85;8.80;;;17.00;99.90;;;;;;5017977;28;20065;-69
2021/07/03 05:19:31;;;;;;;16.52;10.27;;;17.00;99.90;;;;;;5034366;28;20029;-69
2021/07/03 05:21:57;;;;;;;13.88;9.00;;;17.00;99.90;;;;;;5018406;28;20038;-69
2021/07/03 05:24:23;;;;;;;15.18;9.90;;;17.00;99.90;;;;;;5035632;28;20035;-70
2021/07/03 05:26:48;;;;;;;14.98;10.02;;;17.00;99.90;;;;;;5035628;28;20474;-64
2021/07/03 05:29:14;;;;;;;15.88;9.07;;;17.10;99.90;;;;;;5035378;28;20033;-64
2021/07/03 05:31:40;;;;;;;13.48;8.90;;;17.20;99.90;;;;;;5034025;28;20033;-63
2021/07/03 05:34:06;;;;;;;15.77;8.25;;;17.20;99.90;;;;;;5017592;28;20025;-63
2021/07/03 05:36:31;;;;;;;13.77;8.52;;;17.20;99.90;;;;;;5017668;28;20470;-63
2021/07/03 05:38:57;;;;;;;14.10;7.50;;;17.40;99.90;;;;;;5035451;28;20057;-63
2021/07/03 05:41:24;;;;;;;16.02;8.70;;;17.50;99.90;;;;;;5030688;28;20030;-62
2021/07/03 05:43:50;;;;;;;14.20;7.85;;;17.50;99.90;;;;;;5015458;28;20490;-62
2021/07/03 05:46:16;;;;;;;14.85;8.93;;;17.70;99.90;;;;;;5015384;28;20033;-63
2021/07/03 05:48:43;;;;;;;13.40;8.32;;;17.80;99.90;;;;;;5015008;28;20446;-63
2021/07/03 05:51:11;;;;;;;15.75;8.77;;;18.00;99.90;;;;;;5015571;28;20399;-63
2021/07/03 05:53:37;;;;;;;14.32;8.32;;;18.10;99.90;;;;;;4997971;28;20030;-63
2021/07/03 05:56:03;;;;;;;14.32;9.30;;;18.30;99.90;;;;;;5015536;28;20083;-62
2021/07/03 05:58:29;;;;;;;14.57;8.90;;;18.20;99.90;;;;;;5015069;28;20161;-62
2021/07/03 06:00:55;;;;;;;14.63;8.63;;;18.10;99.90;;;;;;5015083;28;20109;-62
2021/07/03 06:03:22;;;;;;;13.38;8.73;;;18.30;99.90;;;;;;5013496;28;20421;-63
2021/07/03 06:05:48;;;;;;;14.60;8.20;;;18.40;99.90;;;;;;5034689;28;20060;-62
2021/07/03 06:08:14;;;;;;;13.40;8.95;;;18.50;99.90;;;;;;5034558;28;20509;-62
2021/07/03 06:10:40;;;;;;;16.25;9.52;;;18.40;99.90;;;;;;5034958;28;20034;-62
2021/07/03 06:13:07;;;;;;;23.45;9.60;;;18.50;99.90;;;;;;5034550;28;20025;-63
2021/07/03 06:15:33;;;;;;;14.10;9.15;;;18.70;99.90;;;;;;5034030;28;20033;-62
2021/07/03 06:17:59;;;;;;;13.65;9.13;;;18.80;99.90;;;;;;5034192;28;20045;-62
2021/07/03 06:20:24;;;;;;;13.77;9.02;;;18.80;99.90;;;;;;5034649;28;20037;-62
2021/07/03 06:22:50;;;;;;;19.60;8.65;;;18.80;99.90;;;;;;5034720;28;20517;-63
2021/07/03 06:25:16;;;;;;;14.18;9.15;;;18.90;99.90;;;;;;5034094;28;20029;-62
2021/07/03 06:27:42;;;;;;;14.38;9.27;;;19.00;99.90;;;;;;5034151;28;20029;-63
2021/07/03 06:30:10;;;;;;;12.40;7.70;;;19.00;99.90;;;;;;5034281;28;20520;-63
2021/07/03 06:32:37;;;;;;;13.57;7.57;;;19.10;99.90;;;;;;5006485;28;20030;-62
2021/07/03 06:35:04;;;;;;;16.05;7.88;;;19.30;99.90;;;;;;4997253;28;20033;-62
2021/07/03 06:37:29;;;;;;;12.82;7.47;;;19.30;99.90;;;;;;5014195;28;20061;-63
2021/07/03 06:39:55;;;;;;;15.95;6.70;;;19.40;99.90;;;;;;5014297;28;20072;-61
2021/07/03 06:42:21;;;;;;;10.93;6.75;;;19.50;99.90;;;;;;5014448;28;20072;-63
2021/07/03 06:44:48;;;;;;;11.32;7.25;;;19.50;99.90;;;;;;5014546;28;20517;-62
2021/07/03 06:47:14;;;;;;;11.27;7.78;;;19.50;99.90;;;;;;5014121;28;20037;-62
2021/07/03 06:49:41;;;;;;;11.68;6.70;;;19.50;99.90;;;;;;5014230;28;20406;-62
2021/07/03 06:52:09;;;;;;;9.65;5.80;;;19.60;99.90;;;;;;4997025;28;20471;-64
2021/07/03 06:54:37;;;;;;;12.35;6.28;;;19.70;99.90;;;;;;5013927;28;20092;-63
2021/07/03 06:57:03;;;;;;;13.48;7.13;;;19.90;99.90;;;;;;5014242;28;20120;-62
2021/07/03 06:59:30;;;;;;;10.32;6.40;;;20.00;99.90;;;;;;4996588;28;20026;-63
2021/07/03 07:01:57;;;;;;;11.65;7.50;;;20.10;99.90;;;;;;5013942;28;20045;-63
2021/07/03 07:04:23;;;;;;;13.10;7.05;;;20.10;99.90;;;;;;5014000;28;20037;-63
2021/07/03 07:06:55;;;;;;;9.75;6.70;;;20.20;99.90;;;;;;5013683;28;20053;-63
2021/07/03 07:09:22;;;;;;;9.55;7.15;;;20.10;99.90;;;;;;4996692;28;20123;-63
2021/07/03 07:11:47;;;;;;;13.85;7.32;;;20.10;99.90;;;;;;5013858;28;20034;-63
2021/07/03 07:14:14;;;;;;;11.70;6.95;;;20.20;99.90;;;;;;5013940;28;20648;-62
2021/07/03 07:16:41;;;;;;;12.68;7.57;;;20.40;99.90;;;;;;4996262;28;20026;-63
2021/07/03 07:19:07;;;;;;;10.85;7.05;;;20.40;99.90;;;;;;5013729;28;20112;-63
2021/07/03 07:21:33;;;;;;;14.27;7.80;;;20.50;99.90;;;;;;4996098;28;20152;-63
2021/07/03 07:23:59;;;;;;;10.75;7.90;;;20.60;99.90;;;;;;5013791;28;20038;-63
2021/07/03 07:26:26;;;;;;;13.32;7.53;;;20.70;99.90;;;;;;4995173;28;20041;-63
2021/07/03 07:28:52;;;;;;;11.65;7.32;;;20.90;99.90;;;;;;5013438;28;20523;-63
2021/07/03 07:31:19;;;;;;;12.57;7.45;;;20.90;99.90;;;;;;5013464;28;20054;-62
2021/07/03 07:33:46;;;;;;;15.23;8.23;;;20.90;99.90;;;;;;4995849;28;20475;-62
2021/07/03 07:36:12;;;;;;;11.93;7.78;;;20.70;99.90;;;;;;4996192;28;20517;-62
2021/07/03 07:38:38;;;;;;;13.30;8.80;;;20.80;99.90;;;;;;5021503;28;20033;-64
2021/07/03 07:41:05;;;;;;;14.60;9.23;;;20.90;99.90;;;;;;5026373;28;20061;-64
2021/07/03 07:43:31;;;;;;;10.95;6.28;;;21.20;99.90;;;;;;5013261;28;20415;-64
2021/07/03 07:45:57;;;;;;;11.88;7.70;;;21.30;99.90;;;;;;5013401;28;20128;-63
2021/07/03 07:48:26;;;;;;;15.90;7.60;;;21.30;99.90;;;;;;5012685;28;20036;-64
2021/07/03 07:50:53;;;;;;;10.63;6.43;;;21.20;99.90;;;;;;5013315;28;20048;-63
2021/07/03 07:53:19;;;;;;;11.90;6.47;;;21.30;99.90;;;;;;5013031;28;20058;-63
2021/07/03 07:55:44;;;;;;;8.02;5.68;;;21.20;99.90;;;;;;5012475;28;20061;-64
2021/07/03 07:58:10;;;;;;;9.48;5.93;;;21.30;99.90;;;;;;5015208;28;20044;-63
2021/07/03 08:00:36;;;;;;;10.88;6.07;;;21.50;99.90;;;;;;5012658;28;20042;-64
2021/07/03 08:03:02;;;;;;;10.68;5.97;;;21.60;99.90;;;;;;5012822;28;20030;-64
2021/07/03 08:05:27;;;;;;;8.88;5.38;;;21.70;99.90;;;;;;5004352;28;20434;-72
2021/07/03 08:07:53;;;;;;;8.52;5.50;;;21.50;99.90;;;;;;4994487;28;20038;-74
2021/07/03 08:10:20;;;;;;;9.40;5.40;;;21.60;99.90;;;;;;5012372;28;20026;-72
2021/07/03 08:12:46;;;;;;;8.10;5.18;;;21.80;99.90;;;;;;5012339;28;20399;-73
2021/07/03 08:15:14;;;;;;;8.48;5.47;;;21.90;99.90;;;;;;5012723;28;20029;-72
2021/07/03 08:17:43;;;;;;;8.68;5.93;;;21.90;99.90;;;;;;5012466;28;20080;-75
2021/07/03 08:20:21;;;;;;;9.07;5.55;;;21.90;99.90;;;;;;4996161;28;20053;-73
2021/07/03 08:22:51;;;;;;;27.55;19.20;;;21.80;99.90;;;;;;5030822;28;20042;-72
2021/07/03 08:25:19;;;;;;;9.27;5.63;;;22.00;99.90;;;;;;5014483;28;20117;-68
2021/07/03 08:27:47;;;;;;;7.40;5.68;;;22.10;99.90;;;;;;5032481;28;20056;-69
2021/07/03 08:30:14;;;;;;;8.20;5.72;;;22.40;99.90;;;;;;5032539;28;20037;-71
2021/07/03 08:32:40;;;;;;;7.68;5.22;;;22.40;99.90;;;;;;5032475;28;20042;-70
2021/07/03 08:35:08;;;;;;;9.63;5.97;;;22.60;99.90;;;;;;5032198;28;20509;-72
2021/07/03 08:37:34;;;;;;;7.65;5.45;;;22.70;99.90;;;;;;5031548;28;20034;-71
2021/07/03 08:40:02;;;;;;;8.95;5.55;;;22.70;99.90;;;;;;5032487;28;20490;-73
2021/07/03 08:42:29;;;;;;;8.98;5.30;;;22.70;99.90;;;;;;5032021;28;20115;-70
2021/07/03 08:44:55;;;;;;;7.55;4.82;;;22.80;99.90;;;;;;5031991;28;20025;-71
2021/07/03 08:47:21;;;;;;;7.65;4.68;;;22.70;99.90;;;;;;5015974;28;20034;-69
2021/07/03 08:50:05;;;;;;;7.40;5.05;;;22.80;99.90;;;;;;5019252;28;20034;-70
2021/07/03 08:52:31;;;;;;;8.88;5.68;;;22.90;99.90;;;;;;5013979;28;20029;-70
2021/07/03 08:55:20;;;;;;;8.63;5.30;;;23.00;99.90;;;;;;5032162;28;20486;-70
2021/07/03 08:57:53;;;;;;;7.47;5.50;;;23.20;99.90;;;;;;5030430;28;20076;-70
2021/07/03 09:00:37;;;;;;;7.35;5.03;;;23.10;99.90;;;;;;5031609;28;20087;-68
2021/07/03 09:03:20;;;;;;;8.52;5.43;;;23.20;99.90;;;;;;5032299;28;20033;-70
2021/07/03 09:05:54;;;;;;;6.35;4.63;;;23.40;99.90;;;;;;5031669;28;20050;-70
2021/07/03 09:08:25;;;;;;;7.43;5.15;;;23.40;99.90;;;;;;5031039;28;20029;-69
2021/07/03 09:11:03;;;;;;;7.88;5.18;;;23.30;99.90;;;;;;5031766;28;20475;-71
2021/07/03 09:13:31;;;;;;;7.65;4.93;;;23.30;99.90;;;;;;5031543;28;20055;-68
2021/07/03 09:15:57;;;;;;;9.75;4.72;;;23.50;99.90;;;;;;5031871;28;20493;-74
2021/07/03 09:18:25;;;;;;;7.95;4.72;;;23.60;99.90;;;;;;5028156;28;20117;-70
2021/07/03 09:20:57;;;;;;;8.30;5.38;;;23.60;99.80;;;;;;4995900;28;20049;-72
2021/07/03 09:23:38;;;;;;;7.30;5.07;;;23.60;99.90;;;;;;5032082;28;20041;-71
2021/07/03 09:26:12;;;;;;;9.57;5.78;;;23.60;99.90;;;;;;5031924;28;20037;-70
2021/07/03 09:28:44;;;;;;;7.70;4.70;;;23.80;99.90;;;;;;5025280;28;20719;-70
2021/07/03 09:31:13;;;;;;;6.45;4.55;;;23.80;99.60;;;;;;5012717;28;20045;-70
2021/07/03 09:33:52;;;;;;;7.70;5.15;;;23.80;99.30;;;;;;5012047;28;20483;-67
2021/07/03 09:36:25;;;;;;;8.48;4.55;;;23.90;99.70;;;;;;5011540;28;20049;-69
2021/07/03 09:38:54;;;;;;;7.60;4.00;;;24.20;99.20;;;;;;4994277;28;20041;-68
2021/07/03 09:41:35;;;;;;;9.23;4.15;;;24.20;98.70;;;;;;4994340;28;20041;-66
2021/07/03 09:44:07;;;;;;;6.88;4.00;;;24.40;97.30;;;;;;4994597;28;20030;-70
2021/07/03 09:46:40;;;;;;;7.07;4.28;;;24.30;97.30;;;;;;4994664;28;20069;-69
2021/07/03 09:49:09;;;;;;;8.38;4.18;;;24.30;97.00;;;;;;5011402;28;20038;-69
2021/07/03 09:51:53;;;;;;;6.00;4.28;;;24.30;96.50;;;;;;5014730;28;20026;-69
2021/07/03 09:54:28;;;;;;;10.20;5.18;;;24.50;96.70;;;;;;5014607;28;20072;-69
2021/07/03 09:57:00;;;;;;;8.00;4.38;;;24.60;95.80;;;;;;4997789;28;20045;-69
2021/07/03 09:59:35;;;;;;;7.65;4.43;;;24.60;96.20;;;;;;4998477;28;20053;-69
2021/07/03 10:02:03;;;;;;;6.97;4.35;;;24.70;95.70;;;;;;5015374;28;20030;-68
2021/07/03 10:04:28;;;;;;;8.95;5.13;;;24.60;95.90;;;;;;5014999;28;20034;-68
2021/07/03 10:07:23;;;;;;;6.97;4.32;;;24.80;95.50;;;;;;5014873;28;20337;-68
2021/07/03 10:09:57;;;;;;;6.32;4.15;;;25.10;95.30;;;;;;4997652;28;20029;-68
2021/07/03 10:12:29;;;;;;;5.70;4.32;;;25.30;94.80;;;;;;4997815;28;20386;-68
2021/07/03 10:14:55;;;;;;;5.90;3.55;;;25.20;94.10;;;;;;5014841;28;20029;-67
2021/07/03 10:17:28;;;;;;;4.68;3.58;;;24.90;93.60;;;;;;4997356;28;20042;-68
2021/07/03 10:19:55;;;;;;;7.15;4.68;;;24.70;94.00;;;;;;5014449;28;20098;-68
2021/07/03 10:22:28;;;;;;;5.95;4.13;;;24.90;93.80;;;;;;5013813;28;20137;-68
2021/07/03 10:25:15;;;;;;;8.57;3.85;;;25.00;94.40;;;;;;4997510;28;20105;-68
2021/07/03 10:27:56;;;;;;;5.65;3.47;;;25.10;93.70;;;;;;5014429;28;20113;-69
2021/07/03 10:30:25;;;;;;;;;;;25.20;93.30;;;;;;5015062;28;20080;-68
2021/07/03 10:33:03;;;;;;;6.20;4.00;;;25.40;93.00;;;;;;5013137;28;19937;-69
2021/07/03 10:35:52;;;;;;;5.47;3.85;;;25.40;92.00;;;;;;5014438;28;20038;-68
2021/07/03 10:38:27;;;;;;;5.05;3.10;;;25.50;92.10;;;;;;5014073;28;20042;-68
2021/07/03 10:41:00;;;;;;;4.35;2.78;;;25.70;91.60;;;;;;5014447;28;20033;-68
2021/07/03 10:43:26;;;;;;;5.30;3.75;;;25.90;91.30;;;;;;4996298;28;20063;-68
2021/07/03 10:45:56;;;;;;;6.25;3.05;;;26.10;90.30;;;;;;5014266;28;20108;-68
2021/07/03 10:48:25;;;;;;;5.05;3.50;;;26.20;90.50;;;;;;5014287;28;20483;-69
2021/07/03 10:50:55;;;;;;;7.90;4.63;;;26.60;90.70;;;;;;5014351;28;20038;-68
2021/07/03 10:53:27;;;;;;;8.23;4.77;;;26.80;90.40;;;;;;5014064;28;20080;-68
2021/07/03 10:55:54;;;;;;;4.60;3.13;;;26.80;90.50;;;;;;4996383;28;20108;-68
2021/07/03 10:58:30;;;;;;;5.45;3.80;;;26.90;91.70;;;;;;4996539;28;20394;-68
2021/07/03 11:01:15;;;;;;;7.25;4.32;;;27.00;91.50;;;;;;4996007;28;20057;-68
2021/07/03 11:03:43;;;;;;;5.05;3.65;;;26.90;90.50;;;;;;5013985;28;20375;-69
2021/07/03 11:06:18;;;;;;;6.65;3.67;;;27.00;89.10;;;;;;4996231;28;20046;-69
2021/07/03 11:08:44;;;;;;;5.55;3.83;;;27.10;88.40;;;;;;5013619;28;20121;-69
2021/07/03 11:11:16;;;;;;;5.25;3.58;;;26.90;90.40;;;;;;4996687;28;20045;-67
2021/07/03 11:13:45;;;;;;;5.65;3.30;;;27.10;90.70;;;;;;4996421;28;20076;-69
2021/07/03 11:16:14;;;;;;;5.63;3.22;;;26.90;88.60;;;;;;5013892;28;20095;-69
2021/07/03 11:18:45;;;;;;;4.32;3.22;;;27.10;87.60;;;;;;5012128;28;20077;-68
2021/07/03 11:21:13;;;;;;;4.22;3.00;;;27.20;89.20;;;;;;4996115;28;20034;-69
2021/07/03 11:23:40;;;;;;;4.07;3.13;;;27.40;85.90;;;;;;4996306;28;20049;-69
2021/07/03 11:26:23;;;;;;;5.13;3.30;;;27.60;86.00;;;;;;5013821;28;20040;-69
2021/07/03 11:28:58;;;;;;;5.68;3.45;;;27.40;85.90;;;;;;4979383;28;20542;-68
2021/07/03 11:31:24;;;;;;;4.30;3.17;;;27.30;87.30;;;;;;4997090;28;20087;-68
2021/07/03 11:33:57;;;;;;;5.43;2.90;;;27.30;84.80;;;;;;5013571;28;20083;-67
2021/07/03 11:36:23;;;;;;;4.75;3.00;;;27.20;83.60;;;;;;5012513;28;20026;-68
2021/07/03 11:38:59;;;;;;;4.30;3.00;;;27.30;83.70;;;;;;5012903;28;20505;-69
2021/07/03 11:41:27;;;;;;;6.20;3.10;;;27.30;82.80;;;;;;5013247;28;20650;-69
2021/07/03 11:44:04;;;;;;;7.55;3.28;;;27.40;83.10;;;;;;4995569;28;20120;-68
2021/07/03 11:46:31;;;;;;;5.35;2.88;;;27.40;84.80;;;;;;4995863;28;20368;-69
2021/07/03 11:48:57;;;;;;;3.95;2.53;;;27.60;81.20;;;;;;4995413;28;20109;-68
2021/07/03 11:51:23;;;;;;;5.47;2.72;;;27.50;81.80;;;;;;4995680;28;20044;-69
2021/07/03 11:53:53;;;;;;;4.90;2.30;;;27.70;78.10;;;;;;4995731;28;20391;-68
2021/07/03 11:56:19;;;;;;;4.38;2.88;;;28.00;78.30;;;;;;5013234;28;20120;-69
2021/07/03 11:58:49;;;;;;;4.05;2.75;;;27.90;78.70;;;;;;4995329;28;20521;-69
2021/07/03 12:01:18;;;;;;;4.78;2.50;;;27.60;77.90;;;;;;4995589;28;20403;-68
2021/07/03 12:03:47;;;;;;;4.38;2.70;;;28.00;77.50;;;;;;4995432;28;20033;-68
2021/07/03 12:06:22;;;;;;;3.60;2.20;;;28.00;77.70;;;;;;4991946;28;20497;-68
2021/07/03 12:08:50;;;;;;;3.45;2.20;;;28.20;76.00;;;;;;4992922;28;20121;-68
2021/07/03 12:11:20;;;;;;;3.92;2.47;;;28.10;75.30;;;;;;4993126;28;20196;-68
2021/07/03 12:13:56;;;;;;;4.00;2.42;;;28.00;74.80;;;;;;4993064;28;20169;-68
2021/07/03 12:16:25;;;;;;;2.83;2.10;;;27.90;73.30;;;;;;4993094;28;20045;-69
2021/07/03 12:18:56;;;;;;;3.70;1.90;;;27.70;73.80;;;;;;4991741;28;20034;-69
2021/07/03 12:21:27;;;;;;;3.53;2.17;;;28.00;72.60;;;;;;5008429;28;20038;-69
2021/07/03 12:24:07;;;;;;;4.80;2.20;;;28.30;71.20;;;;;;4992828;28;20046;-68
2021/07/03 12:26:46;;;;;;;3.92;2.60;;;28.10;72.70;;;;;;4992000;28;20493;-69
2021/07/03 12:29:19;;;;;;;4.20;2.35;;;28.60;72.30;;;;;;5008147;28;20043;-69
2021/07/03 12:31:46;;;;;;;3.88;2.10;;;28.80;74.20;;;;;;4992965;28;20026;-68
2021/07/03 12:34:27;;;;;;;3.20;2.35;;;28.40;69.60;;;;;;4993066;28;20474;-68
2021/07/03 12:37:06;;;;;;;3.65;2.53;;;28.30;71.20;;;;;;4992675;28;20124;-68
2021/07/03 12:39:33;;;;;;;4.38;2.90;;;28.80;72.30;;;;;;4992412;28;20057;-68
2021/07/03 12:42:09;;;;;;;4.90;2.08;;;29.40;71.10;;;;;;4992863;28;20096;-69
2021/07/03 12:44:46;;;;;;;4.88;2.88;;;29.70;72.10;;;;;;4992564;28;20035;-69
2021/07/03 12:47:18;;;;;;;3.35;2.45;;;30.20;69.60;;;;;;4991355;28;20041;-69